PWSweather.com
Personal Weather Stations
Station Observations
GRD01
Warsaw, LesznoPL 05-084

WarsawLesznoPL 05-084

Lat: 52.257404, Lon: 20.564847

Elevation: 298

Station Type: WH3080

http://pogoda.kampinos.waw.pl

High Low Average
Temperature 73.4°F23.0°C 53.6°F12.0°C 63.4°F17.4°C
Dew Point 58.7°F14.8°C 47.4°F8.6°C 54.7°F12.6°C
Winds 14.5 mph 23.3 kmh Calm Calm 5.0 mph WSW8.0 kmh WSW
Wind Gusts 24.4 mph39.3 kmh 1.6 mph2.6 kmh 10.0 mph16.1 kmh
Humidity 90% 51% 75%
Pressure 30.82 in1043.7 mb 30.68 in1038.9 mb -
Precipitation 0.11 in2.8 mm - -
Hour Temp Dew Point Humidity Winds Wind Gusts Pressure Precip Precip Rate Daily Precip Total
12:00 AM 55.8°F13.2°C 52.3°F11.3°C 88% 0.7 mph S1.1 kmh S 2.2 mph3.5 kmh 30.78 in1042.3 mb 0.00 in0.0 mm 0.00 in0.0 mm 0.00 in0.0 mm
12:10 AM 55.8°F13.2°C 52.3°F11.3°C 88% 0.7 mph S1.1 kmh S 1.6 mph2.6 kmh 30.35 in1027.8 mb 0.00 in0.0 mm 0.00 in0.0 mm 0.00 in0.0 mm
12:15 AM 55.8°F13.2°C 52.3°F11.3°C 88% 0.7 mph S1.1 kmh S 1.6 mph2.6 kmh 30.79 in1042.7 mb 0.00 in0.0 mm 0.00 in0.0 mm 0.00 in0.0 mm
12:30 AM 55.6°F13.1°C 52.1°F11.2°C 88% 0.7 mph S1.1 kmh S 3.1 mph5.0 kmh 30.78 in1042.3 mb 0.00 in0.0 mm 0.00 in0.0 mm 0.00 in0.0 mm
12:40 AM 55.6°F13.1°C 52.1°F11.2°C 88% 0.7 mph S1.1 kmh S 1.6 mph2.6 kmh 30.34 in1027.4 mb 0.00 in0.0 mm 0.00 in0.0 mm 0.00 in0.0 mm
12:45 AM 55.6°F13.1°C 52.4°F11.3°C 89% 0.7 mph S1.1 kmh S 1.6 mph2.6 kmh 30.79 in1042.7 mb 0.00 in0.0 mm 0.00 in0.0 mm 0.00 in0.0 mm
01:00 AM 55.6°F13.1°C 52.4°F11.3°C 89% Calm Calm 1.6 mph2.6 kmh 30.78 in1042.3 mb 0.00 in0.0 mm 0.00 in0.0 mm 0.00 in0.0 mm
01:10 AM 55.6°F13.1°C 52.4°F11.3°C 89% Calm Calm 0.7 mph1.1 kmh 30.34 in1027.4 mb 0.00 in0.0 mm 0.00 in0.0 mm 0.00 in0.0 mm
01:15 AM 55.8°F13.2°C 52.6°F11.4°C 89% 0.7 mph S1.1 kmh S 2.2 mph3.5 kmh 30.78 in1042.3 mb 0.00 in0.0 mm 0.00 in0.0 mm 0.00 in0.0 mm
01:30 AM 56.5°F13.6°C 53.6°F12.0°C 90% 0.7 mph S1.1 kmh S 3.8 mph6.1 kmh 30.78 in1042.3 mb 0.00 in0.0 mm 0.00 in0.0 mm 0.00 in0.0 mm
01:40 AM 56.5°F13.6°C 53.6°F12.0°C 90% 3.1 mph S5.0 kmh S 3.8 mph6.1 kmh 30.34 in1027.4 mb 0.00 in0.0 mm 0.00 in0.0 mm 0.00 in0.0 mm
01:45 AM 56.8°F13.8°C 53.9°F12.2°C 90% 3.1 mph SSW5.0 kmh SSW 4.5 mph7.2 kmh 30.78 in1042.3 mb 0.00 in0.0 mm 0.00 in0.0 mm 0.00 in0.0 mm
02:00 AM 57.2°F14.0°C 54.3°F12.4°C 90% Calm Calm 3.8 mph6.1 kmh 30.78 in1042.3 mb 0.00 in0.0 mm 0.00 in0.0 mm 0.00 in0.0 mm
02:10 AM 57.2°F14.0°C 54.3°F12.4°C 90% 0.7 mph SW1.1 kmh SW 2.2 mph3.5 kmh 30.34 in1027.4 mb 0.00 in0.0 mm 0.00 in0.0 mm 0.00 in0.0 mm
02:15 AM 57.4°F14.1°C 54.5°F12.5°C 90% 0.7 mph SSW1.1 kmh SSW 4.5 mph7.2 kmh 30.78 in1042.3 mb 0.00 in0.0 mm 0.00 in0.0 mm 0.00 in0.0 mm
02:30 AM 57.4°F14.1°C 54.5°F12.5°C 90% 0.7 mph S1.1 kmh S 3.1 mph5.0 kmh 30.78 in1042.3 mb 0.00 in0.0 mm 0.00 in0.0 mm 0.00 in0.0 mm
02:40 AM 57.4°F14.1°C 54.5°F12.5°C 90% 0.7 mph S1.1 kmh S 2.2 mph3.5 kmh 30.33 in1027.1 mb 0.00 in0.0 mm 0.00 in0.0 mm 0.00 in0.0 mm
02:45 AM 57.2°F14.0°C 54.0°F12.2°C 89% 0.7 mph S1.1 kmh S 1.6 mph2.6 kmh 30.77 in1042.0 mb 0.00 in0.0 mm 0.00 in0.0 mm 0.00 in0.0 mm
03:00 AM 56.8°F13.8°C 53.6°F12.0°C 89% 0.7 mph SSW1.1 kmh SSW 3.1 mph5.0 kmh 30.77 in1042.0 mb 0.00 in0.0 mm 0.00 in0.0 mm 0.00 in0.0 mm
03:10 AM 56.8°F13.8°C 53.6°F12.0°C 89% 0.7 mph S1.1 kmh S 1.6 mph2.6 kmh 30.33 in1027.1 mb 0.00 in0.0 mm 0.00 in0.0 mm 0.00 in0.0 mm
03:15 AM 56.5°F13.6°C 53.3°F11.8°C 89% 0.7 mph SSW1.1 kmh SSW 4.5 mph7.2 kmh 30.77 in1042.0 mb 0.00 in0.0 mm 0.00 in0.0 mm 0.00 in0.0 mm
03:30 AM 56.3°F13.5°C 53.1°F11.7°C 89% Calm Calm 3.8 mph6.1 kmh 30.76 in1041.7 mb 0.00 in0.0 mm 0.00 in0.0 mm 0.00 in0.0 mm
03:40 AM 56.3°F13.5°C 53.1°F11.7°C 89% Calm Calm 0.7 mph1.1 kmh 30.32 in1026.8 mb 0.00 in0.0 mm 0.00 in0.0 mm 0.00 in0.0 mm
03:45 AM 55.9°F13.3°C 52.7°F11.5°C 89% 0.7 mph S1.1 kmh S 3.1 mph5.0 kmh 30.76 in1041.7 mb 0.00 in0.0 mm 0.00 in0.0 mm 0.00 in0.0 mm
04:00 AM 55.9°F13.3°C 52.7°F11.5°C 89% 0.7 mph S1.1 kmh S 3.8 mph6.1 kmh 30.76 in1041.7 mb 0.00 in0.0 mm 0.00 in0.0 mm 0.00 in0.0 mm
04:10 AM 55.9°F13.3°C 52.7°F11.5°C 89% 0.7 mph S1.1 kmh S 1.6 mph2.6 kmh 30.32 in1026.8 mb 0.00 in0.0 mm 0.00 in0.0 mm 0.00 in0.0 mm
04:15 AM 56.1°F13.4°C 53.2°F11.8°C 90% 1.6 mph S2.6 kmh S 3.8 mph6.1 kmh 30.77 in1042.0 mb 0.00 in0.0 mm 0.00 in0.0 mm 0.00 in0.0 mm
04:30 AM 56.1°F13.4°C 53.2°F11.8°C 90% 0.7 mph S1.1 kmh S 2.2 mph3.5 kmh 30.76 in1041.7 mb 0.00 in0.0 mm 0.00 in0.0 mm 0.00 in0.0 mm
04:40 AM 56.1°F13.4°C 53.2°F11.8°C 90% Calm Calm 0.7 mph1.1 kmh 30.32 in1026.8 mb 0.00 in0.0 mm 0.00 in0.0 mm 0.00 in0.0 mm
04:45 AM 56.3°F13.5°C 53.4°F11.9°C 90% 3.1 mph SSW5.0 kmh SSW 3.8 mph6.1 kmh 30.77 in1042.0 mb 0.00 in0.0 mm 0.00 in0.0 mm 0.00 in0.0 mm
05:00 AM 56.5°F13.6°C 53.6°F12.0°C 90% 0.7 mph SSW1.1 kmh SSW 4.5 mph7.2 kmh 30.76 in1041.7 mb 0.00 in0.0 mm 0.00 in0.0 mm 0.00 in0.0 mm
05:10 AM 56.5°F13.6°C 53.6°F12.0°C 90% 1.6 mph S2.6 kmh S 2.2 mph3.5 kmh 30.32 in1026.8 mb 0.00 in0.0 mm 0.00 in0.0 mm 0.00 in0.0 mm
05:15 AM 56.7°F13.7°C 53.8°F12.1°C 90% 0.7 mph SSW1.1 kmh SSW 5.4 mph8.7 kmh 30.76 in1041.7 mb 0.00 in0.0 mm 0.00 in0.0 mm 0.00 in0.0 mm
05:30 AM 56.5°F13.6°C 53.6°F12.0°C 90% 3.1 mph S5.0 kmh S 4.5 mph7.2 kmh 30.76 in1041.7 mb 0.00 in0.0 mm 0.00 in0.0 mm 0.00 in0.0 mm
05:40 AM 56.5°F13.6°C 53.6°F12.0°C 90% 2.2 mph SE3.5 kmh SE 3.1 mph5.0 kmh 30.32 in1026.8 mb 0.00 in0.0 mm 0.00 in0.0 mm 0.00 in0.0 mm
05:45 AM 56.8°F13.8°C 53.9°F12.2°C 90% 2.2 mph S3.5 kmh S 4.5 mph7.2 kmh 30.76 in1041.7 mb 0.00 in0.0 mm 0.00 in0.0 mm 0.00 in0.0 mm
06:00 AM 57.0°F13.9°C 54.1°F12.3°C 90% 0.7 mph SW1.1 kmh SW 5.4 mph8.7 kmh 30.77 in1042.0 mb 0.00 in0.0 mm 0.00 in0.0 mm 0.00 in0.0 mm
06:10 AM 57.0°F13.9°C 54.1°F12.3°C 90% 0.7 mph W1.1 kmh W 1.6 mph2.6 kmh 30.32 in1026.8 mb 0.00 in0.0 mm 0.00 in0.0 mm 0.00 in0.0 mm
06:15 AM 57.4°F14.1°C 54.5°F12.5°C 90% 1.6 mph S2.6 kmh S 4.5 mph7.2 kmh 30.76 in1041.7 mb 0.00 in0.0 mm 0.00 in0.0 mm 0.00 in0.0 mm
06:30 AM 57.9°F14.4°C 55.0°F12.8°C 90% 3.1 mph SSW5.0 kmh SSW 6.0 mph9.7 kmh 30.76 in1041.7 mb 0.00 in0.0 mm 0.00 in0.0 mm 0.00 in0.0 mm
06:40 AM 57.9°F14.4°C 55.0°F12.8°C 90% 1.6 mph NE2.6 kmh NE 2.2 mph3.5 kmh 30.32 in1026.8 mb 0.00 in0.0 mm 0.00 in0.0 mm 0.00 in0.0 mm
06:45 AM 58.8°F14.9°C 55.9°F13.3°C 90% 2.2 mph W3.5 kmh W 5.4 mph8.7 kmh 30.76 in1041.7 mb 0.00 in0.0 mm 0.00 in0.0 mm 0.00 in0.0 mm
07:00 AM 59.4°F15.2°C 56.4°F13.6°C 90% 3.1 mph WSW5.0 kmh WSW 9.2 mph14.8 kmh 30.76 in1041.7 mb 0.00 in0.0 mm 0.00 in0.0 mm 0.00 in0.0 mm
07:10 AM 59.4°F15.2°C 56.4°F13.6°C 90% 3.1 mph W5.0 kmh W 5.4 mph8.7 kmh 30.31 in1026.4 mb 0.00 in0.0 mm 0.00 in0.0 mm 0.00 in0.0 mm
07:15 AM 60.8°F16.0°C 57.5°F14.2°C 89% 5.4 mph SSW8.7 kmh SSW 10.7 mph17.2 kmh 30.76 in1041.7 mb 0.00 in0.0 mm 0.00 in0.0 mm 0.00 in0.0 mm
07:30 AM 61.7°F16.5°C 57.5°F14.2°C 86% 5.4 mph S8.7 kmh S 8.3 mph13.4 kmh 30.76 in1041.7 mb 0.00 in0.0 mm 0.00 in0.0 mm 0.00 in0.0 mm
07:40 AM 61.7°F16.5°C 57.5°F14.2°C 86% 5.4 mph SW8.7 kmh SW 6.9 mph11.1 kmh 30.31 in1026.4 mb 0.00 in0.0 mm 0.00 in0.0 mm 0.00 in0.0 mm
07:45 AM 62.6°F17.0°C 57.7°F14.3°C 84% 6.9 mph S11.1 kmh S 8.3 mph13.4 kmh 30.75 in1041.3 mb 0.00 in0.0 mm 0.00 in0.0 mm 0.00 in0.0 mm
08:00 AM 63.3°F17.4°C 57.7°F14.3°C 82% 3.8 mph SW6.1 kmh SW 9.8 mph15.8 kmh 30.75 in1041.3 mb 0.00 in0.0 mm 0.00 in0.0 mm 0.00 in0.0 mm
08:10 AM 63.5°F17.5°C 56.9°F13.8°C 79% 3.8 mph S6.1 kmh S 5.4 mph8.7 kmh 30.31 in1026.4 mb 0.00 in0.0 mm 0.00 in0.0 mm 0.00 in0.0 mm
08:15 AM 64.8°F18.2°C 57.0°F13.9°C 76% 4.5 mph S7.2 kmh S 7.6 mph12.2 kmh 30.74 in1041.0 mb 0.00 in0.0 mm 0.00 in0.0 mm 0.00 in0.0 mm
08:30 AM 65.7°F18.7°C 57.1°F13.9°C 74% 4.5 mph SSW7.2 kmh SSW 12.1 mph19.5 kmh 30.75 in1041.3 mb 0.00 in0.0 mm 0.00 in0.0 mm 0.00 in0.0 mm
08:40 AM 65.7°F18.7°C 57.1°F13.9°C 74% 4.5 mph SW7.2 kmh SW 5.4 mph8.7 kmh 30.31 in1026.4 mb 0.00 in0.0 mm 0.00 in0.0 mm 0.00 in0.0 mm
08:45 AM 66.7°F19.3°C 57.4°F14.1°C 72% 6.9 mph SSW11.1 kmh SSW 12.1 mph19.5 kmh 30.75 in1041.3 mb 0.00 in0.0 mm 0.00 in0.0 mm 0.00 in0.0 mm
09:00 AM 68.0°F20.0°C 58.2°F14.6°C 71% 3.8 mph SW6.1 kmh SW 12.1 mph19.5 kmh 30.74 in1041.0 mb 0.00 in0.0 mm 0.00 in0.0 mm 0.00 in0.0 mm
09:10 AM 68.2°F20.1°C 58.4°F14.7°C 71% 6.0 mph SW9.7 kmh SW 9.2 mph14.8 kmh 30.30 in1026.1 mb 0.00 in0.0 mm 0.00 in0.0 mm 0.00 in0.0 mm
09:15 AM 69.1°F20.6°C 58.5°F14.7°C 69% 6.9 mph SW11.1 kmh SW 10.7 mph17.2 kmh 30.74 in1041.0 mb 0.00 in0.0 mm 0.00 in0.0 mm 0.00 in0.0 mm
09:30 AM 70.3°F21.3°C 58.0°F14.4°C 65% 9.8 mph SSW15.8 kmh SSW 15.2 mph24.5 kmh 30.73 in1040.6 mb 0.00 in0.0 mm 0.00 in0.0 mm 0.00 in0.0 mm
09:40 AM 70.3°F21.3°C 57.6°F14.2°C 64% 3.1 mph SE5.0 kmh SE 4.5 mph7.2 kmh 30.29 in1025.7 mb 0.00 in0.0 mm 0.00 in0.0 mm 0.00 in0.0 mm
09:45 AM 71.2°F21.8°C 57.5°F14.2°C 62% 6.0 mph SW9.7 kmh SW 15.2 mph24.5 kmh 30.73 in1040.6 mb 0.00 in0.0 mm 0.00 in0.0 mm 0.00 in0.0 mm
10:00 AM 71.6°F22.0°C 57.4°F14.1°C 61% 7.6 mph SW12.2 kmh SW 13.6 mph21.9 kmh 30.72 in1040.3 mb 0.00 in0.0 mm 0.00 in0.0 mm 0.00 in0.0 mm
10:10 AM 71.6°F22.0°C 57.4°F14.1°C 61% 6.0 mph SW9.7 kmh SW 10.7 mph17.2 kmh 30.28 in1025.4 mb 0.00 in0.0 mm 0.00 in0.0 mm 0.00 in0.0 mm
10:15 AM 72.3°F22.4°C 58.1°F14.5°C 61% 6.0 mph S9.7 kmh S 15.9 mph25.6 kmh 30.72 in1040.3 mb 0.00 in0.0 mm 0.00 in0.0 mm 0.00 in0.0 mm
10:30 AM 72.9°F22.7°C 55.7°F13.2°C 55% 6.9 mph S11.1 kmh S 15.9 mph25.6 kmh 30.72 in1040.3 mb 0.00 in0.0 mm 0.00 in0.0 mm 0.00 in0.0 mm
10:40 AM 72.9°F22.7°C 55.2°F12.9°C 54% 7.6 mph SW12.2 kmh SW 10.7 mph17.2 kmh 30.27 in1025.1 mb 0.00 in0.0 mm 0.00 in0.0 mm 0.00 in0.0 mm
10:45 AM 73.4°F23.0°C 55.7°F13.2°C 54% 6.9 mph WSW11.1 kmh WSW 14.5 mph23.3 kmh 30.71 in1040.0 mb 0.00 in0.0 mm 0.00 in0.0 mm 0.00 in0.0 mm
11:00 AM 73.0°F22.8°C 54.9°F12.7°C 53% 8.3 mph SW13.4 kmh SW 15.2 mph24.5 kmh 30.71 in1040.0 mb 0.00 in0.0 mm 0.00 in0.0 mm 0.00 in0.0 mm
11:10 AM 73.0°F22.8°C 54.9°F12.7°C 53% 8.3 mph S13.4 kmh S 11.4 mph18.3 kmh 30.26 in1024.7 mb 0.00 in0.0 mm 0.00 in0.0 mm 0.00 in0.0 mm
11:15 AM 72.7°F22.6°C 54.6°F12.6°C 53% 10.7 mph S17.2 kmh S 17.4 mph28.0 kmh 30.70 in1039.6 mb 0.00 in0.0 mm 0.00 in0.0 mm 0.00 in0.0 mm
11:30 AM 72.5°F22.5°C 54.4°F12.4°C 53% 6.0 mph SW9.7 kmh SW 19.0 mph30.6 kmh 30.70 in1039.6 mb 0.00 in0.0 mm 0.00 in0.0 mm 0.00 in0.0 mm
11:40 AM 72.5°F22.5°C 54.4°F12.4°C 53% 7.6 mph E12.2 kmh E 11.4 mph18.3 kmh 30.26 in1024.7 mb 0.00 in0.0 mm 0.00 in0.0 mm 0.00 in0.0 mm
11:45 AM 72.5°F22.5°C 54.4°F12.4°C 53% 5.4 mph SSW8.7 kmh SSW 15.9 mph25.6 kmh 30.70 in1039.6 mb 0.00 in0.0 mm 0.00 in0.0 mm 0.00 in0.0 mm
12:00 PM 73.0°F22.8°C 54.9°F12.7°C 53% 9.8 mph SW15.8 kmh SW 18.3 mph29.5 kmh 30.69 in1039.3 mb 0.00 in0.0 mm 0.00 in0.0 mm 0.00 in0.0 mm
12:10 PM 73.0°F22.8°C 54.9°F12.7°C 53% 7.6 mph W12.2 kmh W 9.8 mph15.8 kmh 30.25 in1024.4 mb 0.00 in0.0 mm 0.00 in0.0 mm 0.00 in0.0 mm
12:15 PM 72.9°F22.7°C 54.7°F12.6°C 53% 9.2 mph WSW14.8 kmh WSW 16.8 mph27.0 kmh 30.70 in1039.6 mb 0.00 in0.0 mm 0.00 in0.0 mm 0.00 in0.0 mm
12:30 PM 72.1°F22.3°C 56.5°F13.6°C 58% 7.6 mph SW12.2 kmh SW 18.3 mph29.5 kmh 30.70 in1039.6 mb 0.00 in0.0 mm 0.00 in0.0 mm 0.00 in0.0 mm
12:40 PM 72.1°F22.3°C 56.5°F13.6°C 58% 10.7 mph S17.2 kmh S 13.6 mph21.9 kmh 30.25 in1024.4 mb 0.00 in0.0 mm 0.00 in0.0 mm 0.00 in0.0 mm
12:45 PM 72.1°F22.3°C 57.0°F13.9°C 59% 1.6 mph WSW2.6 kmh WSW 20.6 mph33.2 kmh 30.70 in1039.6 mb 0.00 in0.0 mm 0.00 in0.0 mm 0.00 in0.0 mm
01:00 PM 72.7°F22.6°C 54.6°F12.6°C 53% 14.5 mph NW23.3 kmh NW 24.4 mph39.3 kmh 30.70 in1039.6 mb 0.00 in0.0 mm 0.00 in0.0 mm 0.00 in0.0 mm
01:10 PM 72.7°F22.6°C 54.6°F12.6°C 53% 14.5 mph N23.3 kmh N 15.9 mph25.6 kmh 30.26 in1024.7 mb 0.00 in0.0 mm 0.00 in0.0 mm 0.00 in0.0 mm
01:15 PM 72.0°F22.2°C 55.9°F13.3°C 57% 4.5 mph SW7.2 kmh SW 15.2 mph24.5 kmh 30.69 in1039.3 mb 0.00 in0.0 mm 0.00 in0.0 mm 0.00 in0.0 mm
01:30 PM 72.3°F22.4°C 55.7°F13.2°C 56% 5.4 mph W8.7 kmh W 17.4 mph28.0 kmh 30.69 in1039.3 mb 0.00 in0.0 mm 0.00 in0.0 mm 0.00 in0.0 mm
01:40 PM 72.3°F22.4°C 55.7°F13.2°C 56% 4.5 mph W7.2 kmh W 6.0 mph9.7 kmh 30.24 in1024.0 mb 0.00 in0.0 mm 0.00 in0.0 mm 0.00 in0.0 mm
01:45 PM 72.7°F22.6°C 54.0°F12.2°C 52% 8.3 mph SW13.4 kmh SW 19.7 mph31.7 kmh 30.70 in1039.6 mb 0.00 in0.0 mm 0.00 in0.0 mm 0.00 in0.0 mm
02:00 PM 72.7°F22.6°C 54.0°F12.2°C 52% 7.6 mph SW12.2 kmh SW 16.8 mph27.0 kmh 30.69 in1039.3 mb 0.00 in0.0 mm 0.00 in0.0 mm 0.00 in0.0 mm
02:10 PM 72.9°F22.7°C 54.2°F12.3°C 52% 6.0 mph SW9.7 kmh SW 8.3 mph13.4 kmh 30.25 in1024.4 mb 0.00 in0.0 mm 0.00 in0.0 mm 0.00 in0.0 mm
02:15 PM 72.5°F22.5°C 53.9°F12.2°C 52% 8.3 mph WSW13.4 kmh WSW 17.4 mph28.0 kmh 30.69 in1039.3 mb 0.00 in0.0 mm 0.00 in0.0 mm 0.00 in0.0 mm
02:30 PM 73.0°F22.8°C 54.4°F12.4°C 52% 7.6 mph WNW12.2 kmh WNW 14.5 mph23.3 kmh 30.69 in1039.3 mb 0.00 in0.0 mm 0.00 in0.0 mm 0.00 in0.0 mm
02:40 PM 73.0°F22.8°C 54.4°F12.4°C 52% 3.8 mph W6.1 kmh W 5.4 mph8.7 kmh 30.25 in1024.4 mb 0.00 in0.0 mm 0.00 in0.0 mm 0.00 in0.0 mm
02:45 PM 72.5°F22.5°C 54.4°F12.4°C 53% 6.9 mph W11.1 kmh W 14.5 mph23.3 kmh 30.69 in1039.3 mb 0.00 in0.0 mm 0.00 in0.0 mm 0.00 in0.0 mm
03:00 PM 72.3°F22.4°C 55.7°F13.2°C 56% 9.8 mph WSW15.8 kmh WSW 13.0 mph20.9 kmh 30.69 in1039.3 mb 0.00 in0.0 mm 0.00 in0.0 mm 0.00 in0.0 mm
03:10 PM 72.3°F22.4°C 55.7°F13.2°C 56% 8.3 mph W13.4 kmh W 13.0 mph20.9 kmh 30.25 in1024.4 mb 0.00 in0.0 mm 0.00 in0.0 mm 0.00 in0.0 mm
03:15 PM 72.1°F22.3°C 55.1°F12.8°C 55% 3.1 mph W5.0 kmh W 13.0 mph20.9 kmh 30.68 in1038.9 mb 0.00 in0.0 mm 0.00 in0.0 mm 0.00 in0.0 mm
03:30 PM 72.9°F22.7°C 54.2°F12.3°C 52% 12.1 mph WSW19.5 kmh WSW 14.5 mph23.3 kmh 30.68 in1038.9 mb 0.00 in0.0 mm 0.00 in0.0 mm 0.00 in0.0 mm
03:40 PM 72.9°F22.7°C 54.2°F12.3°C 52% 11.4 mph SW18.3 kmh SW 14.5 mph23.3 kmh 30.25 in1024.4 mb 0.00 in0.0 mm 0.00 in0.0 mm 0.00 in0.0 mm
03:45 PM 72.7°F22.6°C 53.5°F11.9°C 51% 11.4 mph SW18.3 kmh SW 15.9 mph25.6 kmh 30.68 in1038.9 mb 0.00 in0.0 mm 0.00 in0.0 mm 0.00 in0.0 mm
04:00 PM 72.1°F22.3°C 55.6°F13.1°C 56% 3.8 mph WSW6.1 kmh WSW 15.2 mph24.5 kmh 30.68 in1038.9 mb 0.00 in0.0 mm 0.00 in0.0 mm 0.00 in0.0 mm
04:10 PM 72.1°F22.3°C 55.6°F13.1°C 56% 4.5 mph SW7.2 kmh SW 7.6 mph12.2 kmh 30.24 in1024.0 mb 0.00 in0.0 mm 0.00 in0.0 mm 0.00 in0.0 mm
04:15 PM 71.6°F22.0°C 55.6°F13.1°C 57% 3.8 mph SW6.1 kmh SW 9.8 mph15.8 kmh 30.68 in1038.9 mb 0.00 in0.0 mm 0.00 in0.0 mm 0.00 in0.0 mm
04:30 PM 71.2°F21.8°C 55.7°F13.2°C 58% 4.5 mph WSW7.2 kmh WSW 11.4 mph18.3 kmh 30.68 in1038.9 mb 0.00 in0.0 mm 0.00 in0.0 mm 0.00 in0.0 mm
04:40 PM 71.2°F21.8°C 55.7°F13.2°C 58% 5.4 mph SW8.7 kmh SW 9.8 mph15.8 kmh 30.24 in1024.0 mb 0.00 in0.0 mm 0.00 in0.0 mm 0.00 in0.0 mm
04:45 PM 70.9°F21.6°C 56.3°F13.5°C 60% 9.2 mph WSW14.8 kmh WSW 15.2 mph24.5 kmh 30.68 in1038.9 mb 0.00 in0.0 mm 0.00 in0.0 mm 0.00 in0.0 mm
05:00 PM 70.7°F21.5°C 56.1°F13.4°C 60% 3.8 mph WSW6.1 kmh WSW 9.2 mph14.8 kmh 30.68 in1038.9 mb 0.00 in0.0 mm 0.00 in0.0 mm 0.00 in0.0 mm
05:10 PM 70.7°F21.5°C 56.1°F13.4°C 60% 1.6 mph W2.6 kmh W 3.1 mph5.0 kmh 30.24 in1024.0 mb 0.00 in0.0 mm 0.00 in0.0 mm 0.00 in0.0 mm
05:15 PM 70.2°F21.2°C 56.1°F13.4°C 61% 6.0 mph W9.7 kmh W 9.2 mph14.8 kmh 30.69 in1039.3 mb 0.00 in0.0 mm 0.00 in0.0 mm 0.00 in0.0 mm
05:30 PM 66.7°F19.3°C 57.0°F13.9°C 71% 3.8 mph NW6.1 kmh NW 9.2 mph14.8 kmh 30.70 in1039.6 mb 0.02 in0.5 mm 0.08 in2.0 mm 0.02 in0.5 mm
05:40 PM 66.7°F19.3°C 57.4°F14.1°C 72% 4.5 mph NW7.2 kmh NW 6.0 mph9.7 kmh 30.25 in1024.4 mb 0.02 in0.5 mm 0.00 in0.0 mm 0.02 in0.5 mm
05:45 PM 65.3°F18.5°C 57.2°F14.0°C 75% 2.2 mph NW3.5 kmh NW 6.0 mph9.7 kmh 30.69 in1039.3 mb 0.02 in0.5 mm 0.00 in0.0 mm 0.02 in0.5 mm
06:00 PM 64.8°F18.2°C 57.7°F14.3°C 78% 4.5 mph NW7.2 kmh NW 5.4 mph8.7 kmh 30.69 in1039.3 mb 0.02 in0.5 mm 0.00 in0.0 mm 0.02 in0.5 mm
06:10 PM 64.6°F18.1°C 57.6°F14.2°C 78% 3.1 mph W5.0 kmh W 3.8 mph6.1 kmh 30.25 in1024.4 mb 0.02 in0.5 mm 0.00 in0.0 mm 0.02 in0.5 mm
06:15 PM 64.2°F17.9°C 58.3°F14.6°C 81% 6.0 mph NW9.7 kmh NW 16.8 mph27.0 kmh 30.71 in1040.0 mb 0.08 in2.0 mm 0.72 in18.3 mm 0.08 in2.0 mm
06:30 PM 63.3°F17.4°C 58.7°F14.8°C 85% 8.3 mph NW13.4 kmh NW 12.1 mph19.5 kmh 30.72 in1040.3 mb 0.08 in2.0 mm 0.00 in0.0 mm 0.11 in2.8 mm
06:40 PM 63.3°F17.4°C 58.7°F14.8°C 85% 6.9 mph NW11.1 kmh NW 10.7 mph17.2 kmh 30.28 in1025.4 mb 0.08 in2.0 mm 0.00 in0.0 mm 0.11 in2.8 mm
06:45 PM 62.2°F16.8°C 57.7°F14.3°C 85% 8.3 mph NW13.4 kmh NW 9.8 mph15.8 kmh 30.72 in1040.3 mb 0.08 in2.0 mm 0.00 in0.0 mm 0.11 in2.8 mm
07:00 PM 61.9°F16.6°C 57.6°F14.2°C 86% 5.4 mph NW8.7 kmh NW 9.8 mph15.8 kmh 30.73 in1040.6 mb 0.08 in2.0 mm 0.00 in0.0 mm 0.11 in2.8 mm
07:10 PM 61.9°F16.6°C 57.6°F14.2°C 86% 5.4 mph NW8.7 kmh NW 6.9 mph11.1 kmh 30.29 in1025.7 mb 0.08 in2.0 mm 0.00 in0.0 mm 0.11 in2.8 mm
07:15 PM 61.7°F16.5°C 58.1°F14.5°C 88% 5.4 mph NW8.7 kmh NW 9.8 mph15.8 kmh 30.73 in1040.6 mb 0.02 in0.5 mm 0.00 in0.0 mm 0.11 in2.8 mm
07:30 PM 61.5°F16.4°C 58.6°F14.8°C 90% 3.8 mph NW6.1 kmh NW 6.0 mph9.7 kmh 30.74 in1041.0 mb 0.00 in0.0 mm 0.00 in0.0 mm 0.11 in2.8 mm
07:40 PM 61.5°F16.4°C 58.6°F14.8°C 90% 3.1 mph NW5.0 kmh NW 4.5 mph7.2 kmh 30.30 in1026.1 mb 0.00 in0.0 mm 0.00 in0.0 mm 0.11 in2.8 mm
07:45 PM 61.3°F16.3°C 58.4°F14.7°C 90% 3.1 mph WNW5.0 kmh WNW 6.0 mph9.7 kmh 30.73 in1040.6 mb 0.00 in0.0 mm 0.00 in0.0 mm 0.11 in2.8 mm
08:00 PM 61.2°F16.2°C 58.2°F14.6°C 90% 4.5 mph NW7.2 kmh NW 9.2 mph14.8 kmh 30.74 in1041.0 mb 0.00 in0.0 mm 0.00 in0.0 mm 0.11 in2.8 mm
08:10 PM 61.2°F16.2°C 58.2°F14.6°C 90% 3.1 mph NW5.0 kmh NW 4.5 mph7.2 kmh 30.30 in1026.1 mb 0.00 in0.0 mm 0.00 in0.0 mm 0.11 in2.8 mm
08:15 PM 60.8°F16.0°C 57.8°F14.3°C 90% 4.5 mph NW7.2 kmh NW 6.0 mph9.7 kmh 30.75 in1041.3 mb 0.00 in0.0 mm 0.00 in0.0 mm 0.11 in2.8 mm
08:30 PM 60.3°F15.7°C 57.3°F14.1°C 90% 2.2 mph NW3.5 kmh NW 6.9 mph11.1 kmh 30.76 in1041.7 mb 0.00 in0.0 mm 0.00 in0.0 mm 0.11 in2.8 mm
08:40 PM 60.3°F15.7°C 57.3°F14.1°C 90% 6.0 mph N9.7 kmh N 7.6 mph12.2 kmh 30.31 in1026.4 mb 0.00 in0.0 mm 0.00 in0.0 mm 0.11 in2.8 mm
08:45 PM 59.5°F15.3°C 56.0°F13.3°C 88% 2.2 mph NW3.5 kmh NW 6.9 mph11.1 kmh 30.76 in1041.7 mb 0.00 in0.0 mm 0.00 in0.0 mm 0.11 in2.8 mm
09:00 PM 59.2°F15.1°C 55.3°F12.9°C 87% 3.1 mph NW5.0 kmh NW 4.5 mph7.2 kmh 30.76 in1041.7 mb 0.00 in0.0 mm 0.00 in0.0 mm 0.11 in2.8 mm
09:10 PM 59.2°F15.1°C 55.3°F12.9°C 87% 3.8 mph SW6.1 kmh SW 6.9 mph11.1 kmh 30.32 in1026.8 mb 0.00 in0.0 mm 0.00 in0.0 mm 0.11 in2.8 mm
09:15 PM 58.6°F14.8°C 54.5°F12.5°C 86% 5.4 mph NW8.7 kmh NW 13.6 mph21.9 kmh 30.78 in1042.3 mb 0.00 in0.0 mm 0.00 in0.0 mm 0.11 in2.8 mm
09:30 PM 57.9°F14.4°C 52.8°F11.6°C 83% 8.3 mph NW13.4 kmh NW 10.7 mph17.2 kmh 30.77 in1042.0 mb 0.00 in0.0 mm 0.00 in0.0 mm 0.11 in2.8 mm
09:40 PM 57.9°F14.4°C 52.8°F11.6°C 83% 9.2 mph NW14.8 kmh NW 11.4 mph18.3 kmh 30.33 in1027.1 mb 0.00 in0.0 mm 0.00 in0.0 mm 0.11 in2.8 mm
09:45 PM 57.2°F14.0°C 51.1°F10.6°C 80% 6.0 mph NW9.7 kmh NW 14.5 mph23.3 kmh 30.79 in1042.7 mb 0.00 in0.0 mm 0.00 in0.0 mm 0.11 in2.8 mm
10:00 PM 56.7°F13.7°C 49.2°F9.6°C 76% 9.2 mph NW14.8 kmh NW 11.4 mph18.3 kmh 30.79 in1042.7 mb 0.00 in0.0 mm 0.00 in0.0 mm 0.11 in2.8 mm
10:10 PM 56.7°F13.7°C 49.2°F9.6°C 76% 7.6 mph NW12.2 kmh NW 9.2 mph14.8 kmh 30.34 in1027.4 mb 0.00 in0.0 mm 0.00 in0.0 mm 0.11 in2.8 mm
10:15 PM 55.9°F13.3°C 47.8°F8.8°C 74% 3.1 mph NW5.0 kmh NW 8.3 mph13.4 kmh 30.80 in1043.0 mb 0.00 in0.0 mm 0.00 in0.0 mm 0.11 in2.8 mm
10:30 PM 55.2°F12.9°C 47.4°F8.6°C 75% 2.2 mph NW3.5 kmh NW 4.5 mph7.2 kmh 30.80 in1043.0 mb 0.00 in0.0 mm 0.00 in0.0 mm 0.11 in2.8 mm
10:40 PM 55.2°F12.9°C 47.4°F8.6°C 75% 3.8 mph NW6.1 kmh NW 4.5 mph7.2 kmh 30.35 in1027.8 mb 0.00 in0.0 mm 0.00 in0.0 mm 0.11 in2.8 mm
10:45 PM 54.9°F12.7°C 47.8°F8.8°C 77% 6.0 mph NW9.7 kmh NW 10.7 mph17.2 kmh 30.80 in1043.0 mb 0.00 in0.0 mm 0.00 in0.0 mm 0.11 in2.8 mm
11:00 PM 54.5°F12.5°C 47.8°F8.8°C 78% 2.2 mph NW3.5 kmh NW 6.0 mph9.7 kmh 30.81 in1043.3 mb 0.00 in0.0 mm 0.00 in0.0 mm 0.08 in2.0 mm
11:10 PM 54.5°F12.5°C 47.8°F8.8°C 78% 6.0 mph NW9.7 kmh NW 7.6 mph12.2 kmh 30.37 in1028.4 mb 0.00 in0.0 mm 0.00 in0.0 mm 0.08 in2.0 mm
11:15 PM 54.3°F12.4°C 48.6°F9.2°C 81% 6.0 mph NW9.7 kmh NW 7.6 mph12.2 kmh 30.81 in1043.3 mb 0.00 in0.0 mm 0.00 in0.0 mm 0.08 in2.0 mm
11:30 PM 54.0°F12.2°C 48.3°F9.1°C 81% 3.1 mph NW5.0 kmh NW 6.9 mph11.1 kmh 30.82 in1043.7 mb 0.00 in0.0 mm 0.00 in0.0 mm 0.08 in2.0 mm
11:40 PM 54.0°F12.2°C 48.3°F9.1°C 81% 4.5 mph NW7.2 kmh NW 5.4 mph8.7 kmh 30.37 in1028.4 mb 0.00 in0.0 mm 0.00 in0.0 mm 0.08 in2.0 mm
11:45 PM 53.6°F12.0°C 47.9°F8.8°C 81% 2.2 mph NW3.5 kmh NW 4.5 mph7.2 kmh 30.82 in1043.7 mb 0.00 in0.0 mm 0.00 in0.0 mm 0.08 in2.0 mm